Time;durP1;ratioP1;P1;durP2;ratioP2;P2;SDS_P1;SDS_P2;PMS_P1;PMS_P2;Temp;Humidity;BMP_temperature;BMP_pressure;BME280_temperature;BME280_humidity;BME280_pressure;Samples;Min_cycle;Max_cycle;Signal;HPM_P1;HPM_P2
2022/05/09 00:00:24;;;;;;;11.20;3.13;;;;;;;8.47;71.07;102590.44;4989409;28;20038;-89
2022/05/09 00:02:50;;;;;;;10.57;3.40;;;;;;;8.48;71.15;102603.63;4990817;28;20307;-89
2022/05/09 00:05:18;;;;;;;9.60;3.22;;;;;;;8.44;71.36;102604.19;4992071;28;20306;-89
2022/05/09 00:07:45;;;;;;;11.83;2.83;;;;;;;8.41;71.57;102601.91;4990954;28;20125;-88
2022/05/09 00:10:12;;;;;;;8.57;2.93;;;;;;;8.37;71.63;102590.81;4989459;28;20297;-89
2022/05/09 00:12:38;;;;;;;12.15;2.90;;;;;;;8.30;72.21;102590.78;4990343;28;20462;-89
2022/05/09 00:15:08;;;;;;;10.80;3.05;;;;;;;8.32;72.01;102587.91;4996628;28;20066;-89
2022/05/09 00:17:34;;;;;;;13.40;3.10;;;;;;;8.21;71.58;102581.31;4972865;28;20039;-89
2022/05/09 00:19:59;;;;;;;8.60;2.85;;;;;;;8.21;71.98;102585.81;4993465;28;20473;-89
2022/05/09 00:22:24;;;;;;;9.87;2.77;;;;;;;8.09;72.31;102583.72;4990486;28;20018;-89
2022/05/09 00:24:50;;;;;;;9.20;2.80;;;;;;;8.08;73.15;102576.72;4991770;28;20069;-89
2022/05/09 00:27:15;;;;;;;10.13;2.90;;;;;;;8.04;72.76;102584.28;4983137;28;20057;-90
2022/05/09 00:29:40;;;;;;;11.07;2.80;;;;;;;8.03;72.92;102585.28;4988180;28;20045;-84
2022/05/09 00:32:06;;;;;;;16.23;3.20;;;;;;;8.01;72.55;102582.03;4986881;28;20093;-86
2022/05/09 00:34:33;;;;;;;12.43;2.70;;;;;;;7.91;73.14;102576.19;4990073;28;20038;-87
2022/05/09 00:36:59;;;;;;;9.13;2.97;;;;;;;7.90;73.23;102587.91;4991243;28;20035;-87
2022/05/09 00:39:25;;;;;;;12.60;2.87;;;;;;;7.83;74.09;102584.38;4987796;28;20026;-87
2022/05/09 00:41:51;;;;;;;8.93;3.30;;;;;;;7.82;73.82;102577.41;4988594;28;20296;-86
2022/05/09 00:44:20;;;;;;;10.30;2.90;;;;;;;7.78;74.18;102581.47;4989817;28;20123;-87
2022/05/09 00:46:48;;;;;;;11.50;3.00;;;;;;;7.77;74.17;102579.81;4989429;28;20289;-86
2022/05/09 00:49:34;;;;;;;17.27;3.15;;;;;;;7.75;74.14;102588.03;4989789;28;20261;-86
2022/05/09 00:52:19;;;;;;;11.80;2.80;;;;;;;7.67;74.02;102583.66;4991373;28;20450;-87
2022/05/09 00:55:14;;;;;;;8.90;2.92;;;;;;;7.65;73.70;102583.03;4989846;28;20084;-87
2022/05/09 00:57:55;;;;;;;7.43;2.58;;;;;;;7.60;74.67;102576.63;4990039;28;20022;-87
2022/05/09 01:00:23;;;;;;;7.18;2.42;;;;;;;7.62;75.49;102580.75;4986395;28;20034;-86
2022/05/09 01:02:51;;;;;;;12.07;2.90;;;;;;;7.55;74.85;102571.88;4990467;28;20394;-87
2022/05/09 01:05:16;;;;;;;14.20;3.22;;;;;;;7.50;75.35;102569.78;4991503;28;20030;-86
2022/05/09 01:07:43;;;;;;;10.77;3.07;;;;;;;7.50;75.79;102575.13;4989121;28;20077;-86
2022/05/09 01:10:14;;;;;;;7.63;2.92;;;;;;;7.45;75.71;102574.06;4990892;28;20031;-87
2022/05/09 01:12:40;;;;;;;10.75;3.05;;;;;;;7.40;76.12;102567.47;4988623;28;20056;-86
2022/05/09 01:15:09;;;;;;;12.88;3.40;;;;;;;7.38;76.33;102564.16;4988291;28;20023;-86
2022/05/09 01:17:39;;;;;;;14.17;3.10;;;;;;;7.37;76.67;102565.19;4989572;28;20034;-86
2022/05/09 01:20:11;;;;;;;9.57;3.33;;;;;;;7.32;76.39;102556.13;4987881;28;20329;-86
2022/05/09 01:22:38;;;;;;;11.85;3.40;;;;;;;7.33;76.40;102558.56;4990124;28;20029;-86
2022/05/09 01:25:08;;;;;;;10.05;3.40;;;;;;;7.31;76.49;102552.59;4990682;28;20124;-85
2022/05/09 01:27:36;;;;;;;12.13;3.10;;;;;;;7.24;76.87;102551.75;4987622;28;20041;-85
2022/05/09 01:30:08;;;;;;;10.32;2.75;;;;;;;7.19;76.47;102556.81;4989200;28;20034;-86
2022/05/09 01:32:50;;;;;;;9.73;2.70;;;;;;;7.11;76.35;102555.13;4988328;28;20030;-85
2022/05/09 01:35:31;;;;;;;11.95;3.40;;;;;;;7.06;76.59;102554.88;4983289;28;20553;-85
2022/05/09 01:38:08;;;;;;;13.68;3.15;;;;;;;7.01;77.84;102552.78;4990465;28;20035;-85
2022/05/09 01:40:34;;;;;;;10.50;3.20;;;;;;;6.82;78.30;102528.41;4987056;28;20030;-85
2022/05/09 01:42:59;;;;;;;9.27;3.00;;;;;;;6.94;78.83;102546.56;4989604;28;20034;-88
2022/05/09 01:45:24;;;;;;;8.80;3.23;;;;;;;6.89;78.81;102541.00;4990373;28;20049;-85
2022/05/09 01:50:33;;;;;;;10.23;3.05;;;;;;;6.90;78.65;102551.44;4988253;28;20049;-84
2022/05/09 01:52:58;;;;;;;16.33;3.30;;;;;;;6.84;78.57;102546.06;4997800;28;20030;-84
2022/05/09 01:55:24;;;;;;;10.47;3.50;;;;;;;6.85;79.16;102553.03;4986002;28;20030;-84
2022/05/09 01:57:50;;;;;;;9.38;3.33;;;;;;;6.80;80.07;102554.44;4988120;28;20033;-84
2022/05/09 02:00:16;;;;;;;12.43;3.60;;;;;;;6.75;79.42;102545.34;4982615;28;20034;-86
2022/05/09 02:02:42;;;;;;;12.45;3.67;;;;;;;6.71;79.85;102544.94;4988627;28;20058;-84
2022/05/09 02:05:08;;;;;;;13.88;3.45;;;;;;;6.74;79.65;102555.19;4989359;28;20034;-84
2022/05/09 02:07:35;;;;;;;8.68;3.20;;;;;;;6.65;79.25;102551.00;4989918;28;20156;-84
2022/05/09 02:10:00;;;;;;;12.77;3.80;;;;;;;6.58;79.65;102539.44;4988534;28;20034;-84
2022/05/09 02:12:27;;;;;;;10.97;3.43;;;;;;;6.55;79.87;102545.16;4989357;28;20036;-84
2022/05/09 02:14:52;;;;;;;11.38;3.35;;;;;;;6.54;80.34;102543.50;4987535;28;20031;-84
2022/05/09 02:17:18;;;;;;;8.67;3.50;;;;;;;6.47;79.88;102543.44;4990265;28;20061;-84
2022/05/09 02:19:43;;;;;;;15.77;3.57;;;;;;;6.43;80.60;102537.66;4987423;28;20574;-84
2022/05/09 02:22:19;;;;;;;9.87;3.27;;;;;;;6.34;80.68;102539.59;4989882;28;20030;-84
2022/05/09 02:24:45;;;;;;;8.70;3.50;;;;;;;6.27;80.66;102530.72;4989122;28;20030;-84
2022/05/09 02:27:10;;;;;;;9.25;3.10;;;;;;;6.29;81.47;102538.50;4988277;28;20031;-84
2022/05/09 02:29:38;;;;;;;9.77;3.10;;;;;;;6.25;81.11;102532.75;4986979;28;20068;-84
2022/05/09 02:32:05;;;;;;;10.10;3.37;;;;;;;6.18;81.26;102530.00;4967994;28;20109;-83
2022/05/09 02:34:31;;;;;;;14.47;3.30;;;;;;;6.15;81.18;102532.19;4988833;28;20318;-84
2022/05/09 02:36:56;;;;;;;12.10;3.70;;;;;;;6.15;81.98;102538.34;4989325;28;20039;-84
2022/05/09 02:39:21;;;;;;;16.13;3.67;;;;;;;6.11;81.89;102533.59;4987386;28;20049;-84
2022/05/09 02:41:47;;;;;;;9.20;3.10;;;;;;;6.09;82.27;102532.97;4988277;28;20065;-84
2022/05/09 02:44:13;;;;;;;10.23;3.40;;;;;;;6.11;81.83;102525.63;5040685;22;20049;-84
2022/05/09 02:46:40;;;;;;;9.20;3.43;;;;;;;6.03;82.22;102531.84;5040048;28;20365;-85
2022/05/09 02:49:05;;;;;;;11.80;3.90;;;;;;;6.03;82.87;102532.69;5038445;28;20044;-84
2022/05/09 02:51:31;;;;;;;10.57;3.50;;;;;;;6.07;82.54;102533.13;5048115;28;20291;-84
2022/05/09 02:53:56;;;;;;;13.27;3.37;;;;;;;6.08;82.50;102528.66;5048840;28;20111;-84
2022/05/09 02:56:22;;;;;;;14.32;3.58;;;;;;;6.03;83.00;102531.84;5048120;28;20467;-84
2022/05/09 02:58:48;;;;;;;7.60;3.58;;;;;;;6.01;83.53;102533.88;5044813;28;20074;-85
2022/05/09 03:01:13;;;;;;;16.00;3.57;;;;;;;6.00;83.42;102529.56;5044015;28;20025;-84
2022/05/09 03:06:22;;;;;;;13.43;3.65;;;;;;;5.89;83.97;102521.00;5049943;28;20048;-84
2022/05/09 03:08:47;;;;;;;14.23;3.87;;;;;;;5.91;84.50;102526.16;5044412;28;20372;-85
2022/05/09 03:11:13;;;;;;;13.40;4.03;;;;;;;5.89;85.14;102518.34;5040300;28;20068;-84
2022/05/09 03:13:39;;;;;;;12.77;3.83;;;;;;;5.86;84.54;102510.72;5046398;28;20024;-85
2022/05/09 03:16:05;;;;;;;12.77;3.92;;;;;;;5.80;85.01;102519.47;5046867;28;20021;-85
2022/05/09 03:18:31;;;;;;;10.00;3.50;;;;;;;5.80;84.91;102522.13;5033123;28;20079;-84
2022/05/09 03:20:57;;;;;;;10.45;3.45;;;;;;;5.77;84.67;102522.47;5045547;28;20466;-85
2022/05/09 03:23:22;;;;;;;11.53;3.77;;;;;;;5.74;84.63;102528.16;5051559;28;20064;-90
2022/05/09 03:25:47;;;;;;;9.13;3.20;;;;;;;5.68;84.30;102523.56;5051705;28;20044;-88
2022/05/09 03:28:19;;;;;;;11.50;3.73;;;;;;;5.58;84.97;102518.50;5049297;28;20040;-87
2022/05/09 03:30:45;;;;;;;9.83;3.70;;;;;;;5.56;84.72;102516.06;5040643;28;20296;-89
2022/05/09 03:33:11;;;;;;;8.68;3.30;;;;;;;5.51;84.81;102514.94;5040101;28;20056;-90
2022/05/09 03:35:37;;;;;;;10.98;3.72;;;;;;;5.51;85.19;102510.44;5052088;28;20399;-89
2022/05/09 03:38:03;;;;;;;10.02;3.85;;;;;;;5.42;85.44;102509.69;5050592;28;20021;-89
2022/05/09 03:40:28;;;;;;;9.60;3.27;;;;;;;5.37;84.81;102511.25;5031081;28;20099;-90
2022/05/09 03:42:54;;;;;;;10.75;3.70;;;;;;;5.29;85.45;102504.19;5040748;28;20028;-96
2022/05/09 03:45:19;;;;;;;12.53;3.67;;;;;;;5.33;85.32;102509.97;5060882;28;20451;-92
2022/05/09 03:47:44;;;;;;;11.65;3.50;;;;;;;5.24;85.94;102496.78;5608037;22;20045;-96
2022/05/09 03:50:12;;;;;;;9.47;3.60;;;;;;;5.26;86.15;102501.88;5043064;28;20484;-96
2022/05/09 03:52:37;;;;;;;9.40;3.60;;;;;;;5.20;86.17;102503.44;5038741;28;20079;-94
2022/05/09 03:55:04;;;;;;;12.27;3.60;;;;;;;5.25;86.02;102517.03;5032993;28;20126;-94
2022/05/09 03:57:29;;;;;;;14.90;3.95;;;;;;;5.28;86.15;102514.00;5032746;28;20385;-91
2022/05/09 03:59:55;;;;;;;13.13;3.90;;;;;;;5.25;86.37;102505.56;5035690;28;20064;-93
2022/05/09 04:02:20;;;;;;;17.13;4.33;;;;;;;5.27;86.52;102508.88;5034961;28;20017;-91
2022/05/09 04:04:45;;;;;;;11.97;3.80;;;;;;;5.29;86.24;102513.00;5043158;28;20028;-96
2022/05/09 04:07:11;;;;;;;12.90;4.00;;;;;;;5.27;86.30;102508.88;5043156;28;20052;-96
2022/05/09 04:09:36;;;;;;;15.53;3.80;;;;;;;5.29;86.82;102513.00;5049490;28;20018;-96
2022/05/09 04:12:02;;;;;;;8.30;3.50;;;;;;;5.25;86.10;102514.38;5040995;28;20021;-96
2022/05/09 04:17:11;;;;;;;18.13;4.38;;;;;;;5.25;86.54;102508.22;5059303;28;20092;-96
2022/05/09 04:19:38;;;;;;;14.30;4.10;;;;;;;5.32;86.92;102509.16;5124446;22;20067;-92
2022/05/09 04:22:04;;;;;;;9.32;3.92;;;;;;;5.32;87.37;102511.81;5057605;28;20063;-93
2022/05/09 04:24:30;;;;;;;14.95;4.07;;;;;;;5.36;87.40;102512.25;5042561;28;20032;-92
2022/05/09 04:26:57;;;;;;;14.73;4.22;;;;;;;5.40;87.35;102506.41;5031357;28;20029;-92
2022/05/09 04:29:22;;;;;;;9.23;3.72;;;;;;;5.47;86.95;102503.88;5031966;28;20476;-93
2022/05/09 04:31:48;;;;;;;10.33;3.70;;;;;;;5.54;86.52;102509.28;5031945;28;20037;-93
2022/05/09 04:34:13;;;;;;;10.47;3.83;;;;;;;5.59;86.34;102506.88;5033017;28;20492;-93
2022/05/09 04:36:39;;;;;;;15.07;3.50;;;;;;;5.66;85.92;102510.47;5025934;28;20049;-94
2022/05/09 04:39:05;;;;;;;13.13;3.67;;;;;;;5.69;85.91;102499.47;5035320;28;20298;-95
2022/05/09 04:41:33;;;;;;;15.35;4.57;;;;;;;5.78;86.00;102502.84;5025896;28;20405;-92
2022/05/09 04:43:59;;;;;;;13.07;4.22;;;;;;;5.87;86.32;102512.38;5033042;28;20026;-88
2022/05/09 04:46:25;;;;;;;10.95;3.92;;;;;;;5.90;85.47;102504.03;5028595;28;20029;-94
2022/05/09 04:48:54;;;;;;;10.23;4.27;;;;;;;5.95;85.44;102500.81;5023434;28;20105;-95
2022/05/09 04:51:19;;;;;;;17.88;4.10;;;;;;;6.00;85.22;102501.09;5014710;28;20057;-94
2022/05/09 04:53:47;;;;;;;14.02;4.25;;;;;;;6.05;84.65;102497.88;5016424;28;20030;-94
2022/05/09 04:56:12;;;;;;;17.73;4.28;;;;;;;6.23;84.96;102497.50;5014860;28;20032;-93
2022/05/09 04:58:37;;;;;;;14.67;4.37;;;;;;;6.85;83.68;102497.88;5040347;28;20029;-95
2022/05/09 05:01:02;;;;;;;11.77;4.30;;;;;;;7.72;80.15;102493.16;5016214;28;20022;-95
2022/05/09 05:03:28;;;;;;;11.67;4.03;;;;;;;8.50;77.24;102501.91;5101116;22;20052;-94
2022/05/09 05:05:53;;;;;;;16.57;3.93;;;;;;;9.19;74.62;102494.53;5058394;28;20412;-95
2022/05/09 05:08:20;;;;;;;13.87;3.93;;;;;;;9.93;71.70;102504.22;5044438;28;20300;-93
2022/05/09 05:10:45;;;;;;;11.57;3.53;;;;;;;10.54;68.75;102507.44;5029812;28;20036;-90
2022/05/09 05:13:12;;;;;;;14.73;4.10;;;;;;;11.17;66.93;102500.34;5029793;28;20025;-89
2022/05/09 05:15:38;;;;;;;12.73;4.05;;;;;;;11.61;64.86;102498.47;5029432;28;20378;-90
2022/05/09 05:18:04;;;;;;;9.77;3.95;;;;;;;11.98;62.95;102492.22;5028480;28;20032;-90
2022/05/09 05:20:30;;;;;;;10.13;3.60;;;;;;;12.29;62.25;102500.31;5027985;28;20037;-91
2022/05/09 05:22:55;;;;;;;11.33;3.50;;;;;;;12.47;60.59;102494.91;5031145;28;20490;-90
2022/05/09 05:25:27;;;;;;;9.40;3.53;;;;;;;12.77;60.22;102504.81;5031379;28;20105;-90
2022/05/09 05:27:53;;;;;;;14.83;3.97;;;;;;;12.93;59.19;102495.22;5030369;28;20025;-92
2022/05/09 05:30:20;;;;;;;11.43;4.00;;;;;;;12.87;58.66;102505.03;5027073;28;20307;-93
2022/05/09 05:32:46;;;;;;;16.73;4.30;;;;;;;12.75;59.32;102506.06;5034318;28;20416;-87
2022/05/09 05:35:22;;;;;;;21.33;4.80;;;;;;;12.25;60.60;102500.78;5032783;28;20104;-95
2022/05/09 05:37:48;;;;;;;11.77;4.07;;;;;;;11.81;62.42;102505.47;5032996;28;20032;-95
2022/05/09 05:40:14;;;;;;;16.70;3.83;;;;;;;11.55;63.21;102514.66;5033604;28;20033;-89
2022/05/09 05:42:41;;;;;;;19.35;4.43;;;;;;;11.28;63.96;102520.25;5030854;28;20025;-89
2022/05/09 05:45:08;;;;;;;14.25;4.07;;;;;;;10.96;65.03;102514.97;5043748;28;20476;-88
2022/05/09 05:47:33;;;;;;;15.35;3.80;;;;;;;10.64;66.14;102506.97;5031895;28;20029;-89
2022/05/09 05:49:59;;;;;;;14.73;4.10;;;;;;;10.41;67.43;102506.47;5034668;28;20029;-92
2022/05/09 05:52:24;;;;;;;10.82;3.67;;;;;;;10.21;68.46;102503.88;5033910;28;20033;-92
2022/05/09 05:54:50;;;;;;;20.17;4.80;;;;;;;10.16;68.76;102503.69;5035828;28;20037;-89
2022/05/09 05:57:25;;;;;;;10.60;4.30;;;;;;;10.07;69.34;102497.75;5016884;28;20089;-90
2022/05/09 05:59:56;;;;;;;16.05;4.07;;;;;;;9.95;70.22;102502.16;5030496;28;20033;-90
2022/05/09 06:02:23;;;;;;;13.20;4.40;;;;;;;9.92;70.97;102506.09;5011998;28;20029;-90
2022/05/09 06:04:49;;;;;;;12.13;4.38;;;;;;;9.87;70.94;102497.84;5053080;28;20032;-90
2022/05/09 06:07:15;;;;;;;14.10;4.00;;;;;;;9.90;71.36;102502.78;5031051;28;20038;-95
2022/05/09 06:09:42;;;;;;;15.80;4.20;;;;;;;9.95;71.51;102499.47;5039641;28;20029;-91
2022/05/09 06:12:08;;;;;;;14.48;4.50;;;;;;;10.00;71.79;102502.34;5037288;28;20040;-91
2022/05/09 06:14:34;;;;;;;16.13;4.43;;;;;;;10.06;71.25;102500.66;5028797;28;20045;-92
2022/05/09 06:16:59;;;;;;;11.67;4.33;;;;;;;10.08;71.36;102494.06;5033247;28;20052;-92
2022/05/09 06:19:24;;;;;;;17.97;4.23;;;;;;;10.19;70.77;102502.47;5030270;28;20484;-91
2022/05/09 06:21:50;;;;;;;19.67;5.10;;;;;;;10.23;70.58;102507.16;5033952;28;20087;-95
2022/05/09 06:24:17;;;;;;;12.63;4.65;;;;;;;10.37;71.60;102505.25;5025395;28;20052;-89
2022/05/09 06:26:44;;;;;;;12.10;4.25;;;;;;;10.45;70.44;102494.28;5029006;28;20056;-87
2022/05/09 06:29:09;;;;;;;15.63;4.40;;;;;;;10.56;70.48;102494.66;5025419;28;20030;-90
2022/05/09 06:31:35;;;;;;;15.97;4.57;;;;;;;10.67;69.46;102498.50;5027955;28;20108;-90
2022/05/09 06:34:02;;;;;;;13.18;4.57;;;;;;;10.78;68.68;102502.31;5028351;28;20060;-89
2022/05/09 06:36:27;;;;;;;20.95;4.70;;;;;;;10.86;67.63;102504.75;5028519;28;20029;-89
2022/05/09 06:38:54;;;;;;;16.97;4.40;;;;;;;11.00;68.35;102500.91;5030363;28;20068;-90
2022/05/09 06:41:19;;;;;;;16.73;5.35;;;;;;;11.14;67.18;102500.78;5029360;28;20363;-89
2022/05/09 06:43:47;;;;;;;20.58;4.88;;;;;;;11.32;66.98;102503.50;5029465;28;20055;-89
2022/05/09 06:46:12;;;;;;;16.00;4.43;;;;;;;11.42;67.19;102491.44;5030041;28;20075;-90
2022/05/09 06:48:38;;;;;;;13.45;4.35;;;;;;;11.59;66.15;102497.84;5032202;28;20033;-90
2022/05/09 06:51:03;;;;;;;13.13;4.57;;;;;;;11.65;65.97;102496.13;5039516;28;20067;-90
2022/05/09 06:53:29;;;;;;;18.77;4.75;;;;;;;11.76;66.45;102486.50;5016610;28;20044;-91
2022/05/09 06:55:54;;;;;;;17.80;5.07;;;;;;;11.92;66.03;102493.94;5034519;28;20433;-91
2022/05/09 06:58:24;;;;;;;13.67;4.67;;;;;;;12.04;64.74;102490.56;5035356;28;20057;-90
2022/05/09 07:00:51;;;;;;;15.85;4.72;;;;;;;12.23;65.11;102488.63;5039069;28;20485;-90
2022/05/09 07:03:17;;;;;;;15.68;4.75;;;;;;;12.40;65.01;102486.94;5024686;28;20033;-90
2022/05/09 07:05:44;;;;;;;15.17;4.83;;;;;;;12.54;64.30;102487.56;5026518;28;20030;-91
2022/05/09 07:08:10;;;;;;;20.45;5.28;;;;;;;12.57;62.55;102487.09;5021351;28;20191;-89
2022/05/09 07:10:37;;;;;;;13.55;4.57;;;;;;;12.78;63.98;102490.28;5032736;28;20548;-91
2022/05/09 07:13:04;;;;;;;14.10;5.93;;;;;;;12.95;62.54;102495.00;5039260;28;20033;-92
2022/05/09 07:15:31;;;;;;;11.00;4.75;;;;;;;13.08;62.27;102488.53;5025899;28;20026;-89
2022/05/09 07:17:58;;;;;;;13.13;4.88;;;;;;;13.25;61.47;102488.66;5023464;28;20037;-89
2022/05/09 07:20:26;;;;;;;13.45;4.68;;;;;;;13.40;60.84;102489.03;5032709;28;20030;-95
2022/05/09 07:22:54;;;;;;;14.43;4.50;;;;;;;13.44;59.64;102482.13;5033441;28;20022;-91
2022/05/09 07:25:21;;;;;;;15.27;4.80;;;;;;;13.56;59.78;102492.03;5032268;28;20292;-93
2022/05/09 07:27:46;;;;;;;15.05;4.82;;;;;;;13.60;59.81;102485.13;5024166;28;20025;-89
2022/05/09 07:30:16;;;;;;;16.45;5.03;;;;;;;13.74;59.10;102499.16;5037365;28;20074;-90
2022/05/09 07:32:41;;;;;;;12.13;5.13;;;;;;;13.84;59.04;102491.28;5030998;28;20055;-89
2022/05/09 07:35:09;;;;;;;12.43;5.27;;;;;;;13.93;58.90;102492.53;5031961;28;20384;-89
2022/05/09 07:37:34;;;;;;;22.60;5.35;;;;;;;14.07;58.27;102492.25;5019824;28;20092;-89
2022/05/09 07:40:00;;;;;;;12.90;4.73;;;;;;;14.26;58.35;102492.88;5051924;28;20029;-90
2022/05/09 07:42:25;;;;;;;11.75;4.70;;;;;;;14.46;58.01;102496.97;5044970;28;20029;-94
2022/05/09 07:44:56;;;;;;;16.60;5.20;;;;;;;14.59;58.08;102485.91;5030817;28;20036;-90
2022/05/09 07:47:23;;;;;;;15.17;5.00;;;;;;;14.76;56.01;102485.13;5027926;28;20643;-95
2022/05/09 07:49:49;;;;;;;15.10;5.25;;;;;;;14.90;56.35;102489.13;5022957;28;20104;-91
2022/05/09 07:52:14;;;;;;;18.80;5.60;;;;;;;14.93;56.36;102493.19;5037832;28;20036;-92
2022/05/09 07:54:43;;;;;;;14.37;5.27;;;;;;;15.08;56.02;102496.09;5027860;28;20076;-93
2022/05/09 07:57:09;;;;;;;17.05;5.13;;;;;;;15.20;55.31;102506.81;5030687;28;20739;-89
2022/05/09 07:59:35;;;;;;;11.63;4.82;;;;;;;15.29;54.95;102499.94;5031553;28;20148;-90
2022/05/09 08:02:00;;;;;;;13.23;4.90;;;;;;;15.43;55.08;102496.88;5031430;28;20049;-88
2022/05/09 08:04:25;;;;;;;13.52;5.07;;;;;;;15.58;54.89;102494.38;5034946;28;20538;-86
2022/05/09 08:06:51;;;;;;;13.87;5.17;;;;;;;15.81;54.62;102492.47;5033779;28;20041;-87
2022/05/09 08:09:16;;;;;;;11.43;4.63;;;;;;;16.00;55.39;102497.59;5031702;28;20472;-92
2022/05/09 08:11:42;;;;;;;15.90;5.13;;;;;;;16.16;54.63;102493.13;5031780;28;20026;-88
2022/05/09 08:14:08;;;;;;;20.93;5.40;;;;;;;16.39;53.59;102502.84;5025986;28;20030;-89
2022/05/09 08:16:34;;;;;;;10.95;4.53;;;;;;;16.38;51.28;102490.38;5025094;28;20028;-91
2022/05/09 08:19:02;;;;;;;10.65;4.47;;;;;;;16.49;50.31;102497.50;5030971;28;20037;-91
2022/05/09 08:21:28;;;;;;;10.85;4.40;;;;;;;16.58;50.99;102489.75;5032804;28;20028;-93
2022/05/09 08:23:54;;;;;;;10.53;4.53;;;;;;;16.79;50.35;102489.91;5032427;28;20045;-91
2022/05/09 08:26:21;;;;;;;11.87;4.63;;;;;;;16.90;50.07;102485.38;5032908;28;20288;-93
2022/05/09 08:28:48;;;;;;;11.93;4.82;;;;;;;17.10;49.94;102496.38;5031936;28;20032;-91
2022/05/09 08:31:18;;;;;;;12.85;4.88;;;;;;;17.20;49.12;102494.78;5033368;28;20481;-92
2022/05/09 08:33:44;;;;;;;14.05;4.82;;;;;;;17.29;49.44;102489.69;5031064;28;20026;-89
2022/05/09 08:36:09;;;;;;;13.57;5.10;;;;;;;17.43;48.02;102493.59;5029298;28;21238;-84
2022/05/09 08:38:34;;;;;;;18.02;5.32;;;;;;;17.42;47.63;102491.94;5037660;28;20021;-87
2022/05/09 08:41:09;;;;;;;17.07;4.53;;;;;;;17.59;49.36;102494.44;5030873;28;20033;-86
2022/05/09 08:43:48;;;;;;;9.57;4.47;;;;;;;17.65;49.29;102482.56;5131776;22;20064;-87
2022/05/09 08:46:26;;;;;;;13.50;4.78;;;;;;;17.89;48.92;102489.41;5022784;28;20530;-88
2022/05/09 08:49:15;;;;;;;12.70;4.53;;;;;;;18.01;47.61;102496.25;5029483;28;20732;-89
2022/05/09 08:51:58;;;;;;;10.40;4.40;;;;;;;18.03;46.48;102493.25;5029521;28;20026;-91
2022/05/09 08:54:25;;;;;;;10.13;4.23;;;;;;;18.13;46.35;102492.47;5027837;28;20845;-90
2022/05/09 08:56:58;;;;;;;15.80;4.47;;;;;;;18.30;46.65;102487.59;5033335;28;20074;-94
2022/05/09 08:59:33;;;;;;;13.13;4.38;;;;;;;18.40;45.25;102477.84;5036185;28;20029;-95
2022/05/09 09:02:20;;;;;;;12.63;3.72;;;;;;;18.52;46.18;102481.09;5017668;28;20030;-95
2022/05/09 09:04:56;;;;;;;9.30;3.40;;;;;;;18.76;45.14;102478.63;5023927;28;20025;-94
2022/05/09 09:07:46;;;;;;;9.70;3.33;;;;;;;19.01;44.51;102476.19;5034590;28;20048;-95
2022/05/09 09:10:20;;;;;;;8.00;3.50;;;;;;;19.16;43.95;102473.44;5034547;28;20049;-93
2022/05/09 09:12:51;;;;;;;8.95;3.38;;;;;;;19.44;43.27;102473.88;5038195;28;20037;-94
2022/05/09 09:15:35;;;;;;;10.38;3.60;;;;;;;19.62;43.67;102468.91;5025287;28;20033;-93
2022/05/09 09:18:32;;;;;;;10.03;3.30;;;;;;;19.59;41.49;102469.47;5032762;28;20112;-94
2022/05/09 09:21:02;;;;;;;9.00;3.13;;;;;;;19.59;41.30;102458.59;5030801;28;20310;-93
2022/05/09 09:32:19;;;;;;;13.60;3.88;;;;;;;19.86;42.32;102451.94;6123661;22;20020;-95
2022/05/09 09:35:09;;;;;;;8.93;2.83;;;;;;;19.92;41.21;102445.38;5031713;28;20037;-95
2022/05/09 09:37:48;;;;;;;8.77;3.55;;;;;;;20.02;39.99;102460.81;5017072;28;20056;-95
2022/05/09 09:48:39;;;;;;;6.90;2.53;;;;;;;20.38;38.64;102425.97;5543465;22;20303;-95
2022/05/09 09:51:19;;;;;;;11.18;2.80;;;;;;;20.60;39.36;102440.19;5071117;28;20153;-96
2022/05/09 09:57:17;;;;;;;10.90;3.33;;;;;;;20.88;38.92;102436.69;6051456;22;20048;-96
2022/05/09 09:59:44;;;;;;;9.88;3.60;;;;;;;20.96;38.54;102440.69;5065014;28;20033;-96
2022/05/09 10:02:26;;;;;;;7.03;3.33;;;;;;;21.02;39.57;102416.91;5052323;28;20610;-96
2022/05/09 10:04:54;;;;;;;12.25;3.70;;;;;;;21.01;37.84;102407.91;5060061;28;20029;-96
2022/05/09 10:07:35;;;;;;;12.02;3.65;;;;;;;21.20;39.20;102409.06;5057606;28;20052;-96
2022/05/09 10:10:14;;;;;;;8.32;3.53;;;;;;;21.48;39.24;102399.16;5065516;28;20031;-96
2022/05/09 10:12:46;;;;;;;11.40;3.80;;;;;;;21.61;37.58;102395.72;5068942;28;20015;-95
2022/05/09 10:15:35;;;;;;;10.00;4.00;;;;;;;21.85;37.92;102413.09;5065704;28;20658;-96
2022/05/09 10:18:23;;;;;;;10.88;3.65;;;;;;;21.78;38.13;102399.84;5062623;28;20031;-96
2022/05/09 10:20:53;;;;;;;9.90;4.07;;;;;;;21.72;37.24;102390.13;5074808;28;20017;-96
2022/05/09 10:26:27;;;;;;;9.15;3.60;;;;;;;22.15;37.84;102413.72;5050159;28;20064;-96
2022/05/09 10:28:56;;;;;;;11.55;4.05;;;;;;;22.20;36.37;102399.97;5040800;28;20029;-96
2022/05/09 10:31:29;;;;;;;11.07;4.00;;;;;;;22.27;36.39;102394.94;5047824;28;20077;-96
2022/05/09 10:34:05;;;;;;;10.30;4.75;;;;;;;22.31;36.11;102389.69;5065842;28;20033;-96
2022/05/09 10:36:43;;;;;;;13.43;4.97;;;;;;;22.19;36.30;102384.69;5055556;28;20017;-96
2022/05/09 10:39:20;;;;;;;8.60;3.97;;;;;;;22.19;36.31;102388.25;5047488;28;20145;-96
2022/05/09 10:41:51;;;;;;;9.50;4.33;;;;;;;22.12;36.13;102371.44;5052019;28;20358;-95
2022/05/09 10:44:29;;;;;;;9.93;4.32;;;;;;;22.23;35.19;102388.47;5036605;28;20056;-96
2022/05/09 10:47:08;;;;;;;12.98;4.03;;;;;;;22.25;36.31;102383.50;5021793;28;20025;-96
2022/05/09 10:49:45;;;;;;;10.50;3.92;;;;;;;22.29;36.08;102372.78;5031808;28;20022;-96
2022/05/09 10:52:32;;;;;;;12.30;3.47;;;;;;;22.53;36.53;102375.41;5038421;28;20060;-95
2022/05/09 10:55:37;;;;;;;7.85;3.30;;;;;;;22.76;34.74;102381.78;5060552;28;20037;-96
2022/05/09 10:58:08;;;;;;;7.38;3.55;;;;;;;22.98;35.19;102372.06;5064971;28;20451;-96
2022/05/09 11:00:38;;;;;;;9.95;3.78;;;;;;;23.01;34.40;102376.09;5035114;28;20026;-96
2022/05/09 11:03:16;;;;;;;9.45;4.03;;;;;;;23.16;34.12;102374.97;5050063;28;20033;-96
2022/05/09 11:06:02;;;;;;;10.47;3.90;;;;;;;23.28;34.88;102384.28;5065385;28;20025;-96
2022/05/09 11:08:41;;;;;;;11.57;4.80;;;;;;;23.35;34.34;102374.84;5067042;28;20332;-96
2022/05/09 11:11:18;;;;;;;13.05;4.03;;;;;;;23.65;33.57;102380.72;5077590;28;20033;-96
2022/05/09 11:14:11;;;;;;;8.25;3.97;;;;;;;23.59;34.47;102345.28;5035646;28;20041;-96
2022/05/09 11:17:16;;;;;;;9.20;3.78;;;;;;;23.73;34.87;102371.78;5024429;28;20439;-96
2022/05/09 11:22:37;;;;;;;9.80;3.80;;;;;;;23.94;34.32;102344.69;5294824;22;20064;-96
2022/05/09 11:25:16;;;;;;;12.77;4.90;;;;;;;24.06;33.18;102371.53;5072310;28;20048;-96
2022/05/09 11:27:44;;;;;;;8.60;3.85;;;;;;;24.26;33.48;102369.41;5066377;28;20100;-96
2022/05/09 11:30:15;;;;;;;9.98;3.83;;;;;;;24.25;32.54;102356.81;5046715;28;20030;-96
2022/05/09 11:32:43;;;;;;;10.97;3.10;;;;;;;24.33;33.69;102334.94;5043258;28;20033;-96
2022/05/09 11:39:08;;;;;;;8.45;3.65;;;;;;;24.99;33.14;102343.56;5050523;28;20080;-96
2022/05/09 11:41:33;;;;;;;9.48;3.90;;;;;;;24.71;30.72;102339.16;5049730;28;20052;-96
2022/05/09 11:44:04;;;;;;;13.50;3.97;;;;;;;24.64;31.71;102339.59;5117476;22;20032;-96
2022/05/09 11:47:07;;;;;;;6.95;3.50;;;;;;;24.77;31.69;102332.38;5072115;28;20037;-96
2022/05/09 11:49:38;;;;;;;6.45;3.85;;;;;;;24.94;31.80;102331.63;5055181;28;20029;-96
2022/05/09 11:52:12;;;;;;;12.57;4.88;;;;;;;24.37;32.76;102310.50;5055338;28;20222;-96
2022/05/09 11:54:41;;;;;;;8.45;4.28;;;;;;;24.56;32.22;102293.78;5053714;28;20037;-96
2022/05/09 11:57:16;;;;;;;20.55;4.40;;;;;;;24.72;31.80;102296.91;5039524;28;20053;-92
2022/05/09 11:59:54;;;;;;;10.60;4.18;;;;;;;24.89;31.85;102320.78;5058144;28;20021;-96
2022/05/09 12:05:49;;;;;;;7.05;3.90;;;;;;;25.13;31.58;102314.06;5151354;22;20049;-96
2022/05/09 12:08:41;;;;;;;10.17;3.60;;;;;;;25.11;31.19;102313.56;5008765;28;20037;-96
2022/05/09 12:11:22;;;;;;;15.03;4.97;;;;;;;25.23;30.85;102316.47;5055399;28;20318;-95
2022/05/09 12:13:51;;;;;;;9.63;3.83;;;;;;;25.16;31.13;102310.69;5067369;28;20028;-96